Main page
METAR-TAF:

METAR-TAF

Airports :

Gibraltar International Airport

Gibraltar, Gibraltar

latitude: 36-09N, longitude: 005-21W, elevation: 5 m

Current weather observation

The report was made 1 hour and 2 minutes ago, at 23:50 UTC
Wind 6 kt from the West
Temperature 12°C
Humidity 88%
Pressure 1021 hPa
Visibility 10 km or more

METAR: LXGB 152350Z AUTO 26006KT 9999 // NCD 12/10 Q1021

Time: 01:52 (00:52 UTC)

Forecast

The report was made 8 hours and 11 minutes ago, at 16:41 UTC
Forecast valid from 15 at 18 UTC to 15 at 23 UTC
Wind 6 kt from the West
Visibility 10 km or more
Few clouds at a height of 3000 ft

TAF: LXGB 151641Z 1518/1523 27006KT 9999 FEW030

Weather observations and forecasts of more than 4000 airports (METAR and TAF reports).

The available stations are represented by yellow and red dots on the map.

Hover mouse over dot to see the name of the station.

Then click to see weather observations and forecasts.

To change the map : click on the green buttons with a black cross to zoom in, on the green button with a dash to zoom out, or on the green arrows for adjacent maps.


METAR-TAF: